sensor_id;sensor_type;location;lat;lon;timestamp;pressure;altitude;pressure_sealevel;temperature;humidity
12969;BME280;6549;53.128;8.182;2022-11-15T00:00:43;100744.13;;;6.60;100.00
12969;BME280;6549;53.128;8.182;2022-11-15T00:03:43;100740.19;;;6.57;100.00
12969;BME280;6549;53.128;8.182;2022-11-15T00:06:44;100735.47;;;6.54;100.00
12969;BME280;6549;53.128;8.182;2022-11-15T00:09:44;100737.34;;;6.50;100.00
12969;BME280;6549;53.128;8.182;2022-11-15T00:12:44;100738.03;;;6.47;100.00
12969;BME280;6549;53.128;8.182;2022-11-15T00:15:45;100731.72;;;6.43;100.00
12969;BME280;6549;53.128;8.182;2022-11-15T00:18:45;100738.25;;;6.39;100.00
12969;BME280;6549;53.128;8.182;2022-11-15T00:21:45;100735.88;;;6.37;100.00
12969;BME280;6549;53.128;8.182;2022-11-15T00:24:46;100740.44;;;6.33;100.00
12969;BME280;6549;53.128;8.182;2022-11-15T00:27:46;100736.84;;;6.29;100.00
12969;BME280;6549;53.128;8.182;2022-11-15T00:30:46;100729.41;;;6.26;100.00
12969;BME280;6549;53.128;8.182;2022-11-15T00:33:47;100736.72;;;6.22;100.00
12969;BME280;6549;53.128;8.182;2022-11-15T00:36:47;100734.25;;;6.17;100.00
12969;BME280;6549;53.128;8.182;2022-11-15T00:39:47;100750.91;;;6.12;100.00
12969;BME280;6549;53.128;8.182;2022-11-15T00:42:48;100746.88;;;6.06;100.00
12969;BME280;6549;53.128;8.182;2022-11-15T00:45:48;100746.69;;;5.99;100.00
12969;BME280;6549;53.128;8.182;2022-11-15T00:48:48;100743.81;;;5.92;100.00
12969;BME280;6549;53.128;8.182;2022-11-15T00:51:49;100734.66;;;5.84;100.00
12969;BME280;6549;53.128;8.182;2022-11-15T00:54:49;100735.72;;;5.79;100.00
12969;BME280;6549;53.128;8.182;2022-11-15T00:57:49;100741.44;;;5.74;100.00
12969;BME280;6549;53.128;8.182;2022-11-15T01:00:50;100736.97;;;5.66;100.00
12969;BME280;6549;53.128;8.182;2022-11-15T01:03:50;100732.81;;;5.57;100.00
12969;BME280;6549;53.128;8.182;2022-11-15T01:06:50;100740.81;;;5.50;100.00
12969;BME280;6549;53.128;8.182;2022-11-15T01:09:51;100739.84;;;5.42;100.00
12969;BME280;6549;53.128;8.182;2022-11-15T01:12:51;100740.47;;;5.35;100.00
12969;BME280;6549;53.128;8.182;2022-11-15T01:15:52;100730.34;;;5.36;100.00
12969;BME280;6549;53.128;8.182;2022-11-15T01:18:52;100731.75;;;5.30;100.00
12969;BME280;6549;53.128;8.182;2022-11-15T01:21:52;100728.56;;;5.28;100.00
12969;BME280;6549;53.128;8.182;2022-11-15T01:24:53;100728.41;;;5.21;100.00
12969;BME280;6549;53.128;8.182;2022-11-15T01:27:53;100725.13;;;5.15;100.00
12969;BME280;6549;53.128;8.182;2022-11-15T01:30:53;100720.31;;;5.09;100.00
12969;BME280;6549;53.128;8.182;2022-11-15T01:33:53;100710.88;;;5.06;100.00
12969;BME280;6549;53.128;8.182;2022-11-15T01:36:54;100705.34;;;5.03;100.00
12969;BME280;6549;53.128;8.182;2022-11-15T01:39:54;100696.63;;;4.97;100.00
12969;BME280;6549;53.128;8.182;2022-11-15T01:42:54;100694.88;;;4.89;100.00
12969;BME280;6549;53.128;8.182;2022-11-15T01:46:08;100689.13;;;4.78;100.00
12969;BME280;6549;53.128;8.182;2022-11-15T01:49:18;100688.16;;;4.71;100.00
12969;BME280;6549;53.128;8.182;2022-11-15T01:52:21;100685.56;;;4.62;100.00
12969;BME280;6549;53.128;8.182;2022-11-15T01:55:25;100675.72;;;4.58;100.00
12969;BME280;6549;53.128;8.182;2022-11-15T01:58:26;100676.06;;;4.56;100.00
12969;BME280;6549;53.128;8.182;2022-11-15T02:01:27;100672.13;;;4.53;100.00
12969;BME280;6549;53.128;8.182;2022-11-15T02:04:31;100669.06;;;4.55;100.00
12969;BME280;6549;53.128;8.182;2022-11-15T02:07:34;100680.13;;;4.62;100.00
12969;BME280;6549;53.128;8.182;2022-11-15T02:10:34;100670.59;;;4.68;100.00
12969;BME280;6549;53.128;8.182;2022-11-15T02:13:36;100657.97;;;4.76;100.00
12969;BME280;6549;53.128;8.182;2022-11-15T02:16:57;100656.41;;;4.90;100.00
12969;BME280;6549;53.128;8.182;2022-11-15T02:20:19;100652.81;;;5.02;100.00
12969;BME280;6549;53.128;8.182;2022-11-15T02:27:00;100659.16;;;5.22;100.00
12969;BME280;6549;53.128;8.182;2022-11-15T02:33:33;100658.81;;;5.39;100.00
12969;BME280;6549;53.128;8.182;2022-11-15T02:39:44;100651.06;;;5.57;100.00
12969;BME280;6549;53.128;8.182;2022-11-15T02:42:56;100653.13;;;5.63;100.00
12969;BME280;6549;53.128;8.182;2022-11-15T02:46:22;100642.41;;;5.70;100.00
12969;BME280;6549;53.128;8.182;2022-11-15T02:49:52;100645.63;;;5.76;100.00
12969;BME280;6549;53.128;8.182;2022-11-15T02:52:54;100647.03;;;5.85;100.00
12969;BME280;6549;53.128;8.182;2022-11-15T02:55:56;100647.56;;;5.91;100.00
12969;BME280;6549;53.128;8.182;2022-11-15T02:59:10;100649.66;;;5.98;100.00
12969;BME280;6549;53.128;8.182;2022-11-15T03:09:34;100648.19;;;6.19;100.00
12969;BME280;6549;53.128;8.182;2022-11-15T03:12:44;100648.31;;;6.26;100.00
12969;BME280;6549;53.128;8.182;2022-11-15T03:19:58;100649.53;;;6.48;100.00
12969;BME280;6549;53.128;8.182;2022-11-15T03:23:05;100644.06;;;6.48;100.00
12969;BME280;6549;53.128;8.182;2022-11-15T03:26:09;100644.06;;;6.48;100.00
12969;BME280;6549;53.128;8.182;2022-11-15T03:29:17;100633.28;;;6.55;100.00
12969;BME280;6549;53.128;8.182;2022-11-15T03:32:23;100635.66;;;6.57;100.00
12969;BME280;6549;53.128;8.182;2022-11-15T03:35:27;100630.25;;;6.60;100.00
12969;BME280;6549;53.128;8.182;2022-11-15T03:38:31;100633.94;;;6.68;100.00
12969;BME280;6549;53.128;8.182;2022-11-15T03:41:40;100626.94;;;6.70;100.00
12969;BME280;6549;53.128;8.182;2022-11-15T03:44:55;100618.47;;;6.75;100.00
12969;BME280;6549;53.128;8.182;2022-11-15T03:48:12;100617.00;;;6.82;100.00
12969;BME280;6549;53.128;8.182;2022-11-15T03:51:14;100619.44;;;6.87;100.00
12969;BME280;6549;53.128;8.182;2022-11-15T03:54:15;100626.47;;;6.88;100.00
12969;BME280;6549;53.128;8.182;2022-11-15T03:57:16;100620.28;;;6.91;100.00
12969;BME280;6549;53.128;8.182;2022-11-15T04:00:16;100619.56;;;6.94;100.00
12969;BME280;6549;53.128;8.182;2022-11-15T04:03:16;100625.59;;;7.03;100.00
12969;BME280;6549;53.128;8.182;2022-11-15T04:06:17;100622.84;;;7.03;100.00
12969;BME280;6549;53.128;8.182;2022-11-15T04:09:17;100622.56;;;7.08;100.00
12969;BME280;6549;53.128;8.182;2022-11-15T04:12:17;100621.03;;;7.10;100.00
12969;BME280;6549;53.128;8.182;2022-11-15T04:15:30;100624.97;;;7.13;100.00
12969;BME280;6549;53.128;8.182;2022-11-15T04:18:31;100626.53;;;7.14;100.00
12969;BME280;6549;53.128;8.182;2022-11-15T04:21:31;100621.97;;;7.21;100.00
12969;BME280;6549;53.128;8.182;2022-11-15T04:24:50;100620.13;;;7.26;100.00
12969;BME280;6549;53.128;8.182;2022-11-15T04:27:50;100619.72;;;7.27;100.00
12969;BME280;6549;53.128;8.182;2022-11-15T04:30:51;100622.91;;;7.29;100.00
12969;BME280;6549;53.128;8.182;2022-11-15T04:33:54;100629.94;;;7.30;100.00
12969;BME280;6549;53.128;8.182;2022-11-15T04:36:54;100633.19;;;7.39;100.00
12969;BME280;6549;53.128;8.182;2022-11-15T04:40:13;100624.06;;;7.54;100.00
12969;BME280;6549;53.128;8.182;2022-11-15T04:43:13;100624.44;;;7.53;100.00
12969;BME280;6549;53.128;8.182;2022-11-15T04:46:13;100630.69;;;7.53;100.00
12969;BME280;6549;53.128;8.182;2022-11-15T04:49:14;100627.22;;;7.56;100.00
12969;BME280;6549;53.128;8.182;2022-11-15T04:52:14;100627.69;;;7.62;100.00
12969;BME280;6549;53.128;8.182;2022-11-15T04:55:14;100629.72;;;7.65;100.00
12969;BME280;6549;53.128;8.182;2022-11-15T04:58:15;100631.69;;;7.68;100.00
12969;BME280;6549;53.128;8.182;2022-11-15T05:01:15;100624.69;;;7.71;100.00
12969;BME280;6549;53.128;8.182;2022-11-15T05:04:16;100620.91;;;7.79;100.00
12969;BME280;6549;53.128;8.182;2022-11-15T05:07:19;100621.75;;;7.83;100.00
12969;BME280;6549;53.128;8.182;2022-11-15T05:10:19;100619.53;;;7.92;100.00
12969;BME280;6549;53.128;8.182;2022-11-15T05:13:19;100624.63;;;7.93;100.00
12969;BME280;6549;53.128;8.182;2022-11-15T05:16:20;100618.47;;;8.00;100.00
12969;BME280;6549;53.128;8.182;2022-11-15T05:19:20;100625.16;;;8.06;100.00
12969;BME280;6549;53.128;8.182;2022-11-15T05:22:20;100613.59;;;8.16;100.00
12969;BME280;6549;53.128;8.182;2022-11-15T05:25:22;100610.47;;;8.18;100.00
12969;BME280;6549;53.128;8.182;2022-11-15T05:28:22;100613.25;;;8.21;100.00
12969;BME280;6549;53.128;8.182;2022-11-15T05:31:23;100603.88;;;8.22;100.00
12969;BME280;6549;53.128;8.182;2022-11-15T05:34:23;100598.03;;;8.24;100.00
12969;BME280;6549;53.128;8.182;2022-11-15T05:37:25;100607.03;;;8.24;100.00
12969;BME280;6549;53.128;8.182;2022-11-15T05:40:26;100610.97;;;8.27;100.00
12969;BME280;6549;53.128;8.182;2022-11-15T05:43:29;100600.44;;;8.29;100.00
12969;BME280;6549;53.128;8.182;2022-11-15T05:46:30;100602.38;;;8.28;100.00
12969;BME280;6549;53.128;8.182;2022-11-15T05:49:35;100598.19;;;8.34;100.00
12969;BME280;6549;53.128;8.182;2022-11-15T05:52:37;100599.78;;;8.35;100.00
12969;BME280;6549;53.128;8.182;2022-11-15T05:55:38;100602.19;;;8.40;100.00
12969;BME280;6549;53.128;8.182;2022-11-15T05:58:39;100606.47;;;8.41;100.00
12969;BME280;6549;53.128;8.182;2022-11-15T06:01:40;100610.41;;;8.40;100.00
12969;BME280;6549;53.128;8.182;2022-11-15T06:04:40;100611.16;;;8.41;100.00
12969;BME280;6549;53.128;8.182;2022-11-15T06:07:41;100611.94;;;8.41;100.00
12969;BME280;6549;53.128;8.182;2022-11-15T06:10:41;100624.53;;;8.46;100.00
12969;BME280;6549;53.128;8.182;2022-11-15T06:13:41;100618.34;;;8.52;100.00
12969;BME280;6549;53.128;8.182;2022-11-15T06:16:41;100607.44;;;8.56;100.00
12969;BME280;6549;53.128;8.182;2022-11-15T06:19:42;100619.56;;;8.58;100.00
12969;BME280;6549;53.128;8.182;2022-11-15T06:22:42;100613.75;;;8.64;100.00
12969;BME280;6549;53.128;8.182;2022-11-15T06:25:43;100618.16;;;8.72;100.00
12969;BME280;6549;53.128;8.182;2022-11-15T06:28:43;100609.19;;;8.75;100.00
12969;BME280;6549;53.128;8.182;2022-11-15T06:31:43;100611.19;;;8.81;100.00
12969;BME280;6549;53.128;8.182;2022-11-15T06:34:44;100609.66;;;8.80;100.00
12969;BME280;6549;53.128;8.182;2022-11-15T06:37:44;100612.41;;;8.84;100.00
12969;BME280;6549;53.128;8.182;2022-11-15T06:40:44;100614.38;;;8.87;100.00
12969;BME280;6549;53.128;8.182;2022-11-15T06:43:45;100611.72;;;8.94;100.00
12969;BME280;6549;53.128;8.182;2022-11-15T06:46:45;100617.97;;;8.94;100.00
12969;BME280;6549;53.128;8.182;2022-11-15T06:49:45;100621.16;;;9.00;100.00
12969;BME280;6549;53.128;8.182;2022-11-15T06:52:45;100628.25;;;9.05;100.00
12969;BME280;6549;53.128;8.182;2022-11-15T06:55:46;100632.22;;;9.07;100.00
12969;BME280;6549;53.128;8.182;2022-11-15T06:58:46;100634.19;;;9.10;100.00
12969;BME280;6549;53.128;8.182;2022-11-15T07:01:46;100629.91;;;9.16;100.00
12969;BME280;6549;53.128;8.182;2022-11-15T07:04:47;100637.41;;;9.19;100.00
12969;BME280;6549;53.128;8.182;2022-11-15T07:07:54;100634.69;;;9.23;100.00
12969;BME280;6549;53.128;8.182;2022-11-15T07:10:58;100648.06;;;9.28;100.00
12969;BME280;6549;53.128;8.182;2022-11-15T07:13:59;100642.97;;;9.30;100.00
12969;BME280;6549;53.128;8.182;2022-11-15T07:17:00;100646.16;;;9.35;100.00
12969;BME280;6549;53.128;8.182;2022-11-15T07:20:03;100647.38;;;9.41;100.00
12969;BME280;6549;53.128;8.182;2022-11-15T07:23:05;100638.75;;;9.43;100.00
12969;BME280;6549;53.128;8.182;2022-11-15T07:26:06;100638.81;;;9.46;100.00
12969;BME280;6549;53.128;8.182;2022-11-15T07:29:07;100643.91;;;9.52;100.00
12969;BME280;6549;53.128;8.182;2022-11-15T07:32:07;100647.88;;;9.58;100.00
12969;BME280;6549;53.128;8.182;2022-11-15T07:35:08;100640.47;;;9.62;100.00
12969;BME280;6549;53.128;8.182;2022-11-15T07:38:09;100636.19;;;9.64;100.00
12969;BME280;6549;53.128;8.182;2022-11-15T07:41:09;100637.78;;;9.69;100.00
12969;BME280;6549;53.128;8.182;2022-11-15T07:44:10;100647.56;;;9.70;100.00
12969;BME280;6549;53.128;8.182;2022-11-15T07:47:10;100644.81;;;9.70;100.00
12969;BME280;6549;53.128;8.182;2022-11-15T07:50:10;100646.03;;;9.72;100.00
12969;BME280;6549;53.128;8.182;2022-11-15T07:53:11;100644.47;;;9.75;100.00
12969;BME280;6549;53.128;8.182;2022-11-15T07:56:12;100635.88;;;9.76;100.00
12969;BME280;6549;53.128;8.182;2022-11-15T07:59:12;100633.16;;;9.83;100.00
12969;BME280;6549;53.128;8.182;2022-11-15T08:02:12;100629.63;;;9.83;100.00
12969;BME280;6549;53.128;8.182;2022-11-15T08:05:13;100635.16;;;9.86;100.00
12969;BME280;6549;53.128;8.182;2022-11-15T08:08:13;100629.69;;;9.90;100.00
12969;BME280;6549;53.128;8.182;2022-11-15T08:11:14;100635.19;;;9.93;100.00
12969;BME280;6549;53.128;8.182;2022-11-15T08:14:14;100628.53;;;9.98;100.00
12969;BME280;6549;53.128;8.182;2022-11-15T08:17:14;100629.38;;;10.09;100.00
12969;BME280;6549;53.128;8.182;2022-11-15T08:20:15;100634.50;;;10.11;100.00
12969;BME280;6549;53.128;8.182;2022-11-15T08:23:15;100635.34;;;10.18;100.00
12969;BME280;6549;53.128;8.182;2022-11-15T08:26:15;100639.28;;;10.24;100.00
12969;BME280;6549;53.128;8.182;2022-11-15T08:29:16;100639.28;;;10.24;100.00
12969;BME280;6549;53.128;8.182;2022-11-15T08:32:17;100635.38;;;10.25;100.00
12969;BME280;6549;53.128;8.182;2022-11-15T08:35:18;100642.44;;;10.26;100.00
12969;BME280;6549;53.128;8.182;2022-11-15T08:38:19;100640.47;;;10.27;100.00
12969;BME280;6549;53.128;8.182;2022-11-15T08:41:39;100636.56;;;10.28;100.00
12969;BME280;6549;53.128;8.182;2022-11-15T08:44:40;100641.69;;;10.33;100.00
12969;BME280;6549;53.128;8.182;2022-11-15T08:47:40;100649.53;;;10.31;100.00
12969;BME280;6549;53.128;8.182;2022-11-15T08:50:40;100640.88;;;10.32;100.00
12969;BME280;6549;53.128;8.182;2022-11-15T08:53:41;100645.59;;;10.32;100.00
12969;BME280;6549;53.128;8.182;2022-11-15T08:56:42;100653.88;;;10.35;100.00
12969;BME280;6549;53.128;8.182;2022-11-15T08:59:42;100649.19;;;10.40;100.00
12969;BME280;6549;53.128;8.182;2022-11-15T09:02:42;100642.50;;;10.41;100.00
12969;BME280;6549;53.128;8.182;2022-11-15T09:05:43;100646.81;;;10.42;100.00
12969;BME280;6549;53.128;8.182;2022-11-15T09:08:43;100643.28;;;10.45;100.00
12969;BME280;6549;53.128;8.182;2022-11-15T09:11:43;100644.50;;;10.51;100.00
12969;BME280;6549;53.128;8.182;2022-11-15T09:14:44;100635.88;;;10.59;100.00
12969;BME280;6549;53.128;8.182;2022-11-15T09:17:44;100635.50;;;10.68;100.00
12969;BME280;6549;53.128;8.182;2022-11-15T09:20:44;100630.06;;;10.75;100.00
12969;BME280;6549;53.128;8.182;2022-11-15T09:23:44;100637.13;;;10.87;100.00
12969;BME280;6549;53.128;8.182;2022-11-15T09:26:45;100630.84;;;10.86;100.00
12969;BME280;6549;53.128;8.182;2022-11-15T09:29:45;100627.72;;;10.91;100.00
12969;BME280;6549;53.128;8.182;2022-11-15T09:32:46;100632.84;;;11.03;100.00
12969;BME280;6549;53.128;8.182;2022-11-15T09:35:46;100621.44;;;11.05;100.00
12969;BME280;6549;53.128;8.182;2022-11-15T09:38:46;100628.53;;;11.13;100.00
12969;BME280;6549;53.128;8.182;2022-11-15T09:45:20;100636.38;;;11.18;100.00
12969;BME280;6549;53.128;8.182;2022-11-15T09:51:54;100626.16;;;11.29;100.00
12969;BME280;6549;53.128;8.182;2022-11-15T09:54:54;100626.19;;;11.33;100.00
12969;BME280;6549;53.128;8.182;2022-11-15T09:58:02;100621.84;;;11.39;100.00
12969;BME280;6549;53.128;8.182;2022-11-15T10:01:07;100623.44;;;11.50;100.00
12969;BME280;6549;53.128;8.182;2022-11-15T10:04:11;100623.41;;;11.54;100.00
12969;BME280;6549;53.128;8.182;2022-11-15T10:07:22;100619.84;;;11.60;100.00
12969;BME280;6549;53.128;8.182;2022-11-15T10:10:36;100613.56;;;11.70;100.00
12969;BME280;6549;53.128;8.182;2022-11-15T10:13:41;100610.41;;;11.83;100.00
12969;BME280;6549;53.128;8.182;2022-11-15T10:20:12;100610.31;;;12.14;100.00
12969;BME280;6549;53.128;8.182;2022-11-15T10:23:18;100601.63;;;12.20;100.00
12969;BME280;6549;53.128;8.182;2022-11-15T10:26:19;100609.50;;;12.25;100.00
12969;BME280;6549;53.128;8.182;2022-11-15T10:29:20;100603.16;;;12.28;100.00
12969;BME280;6549;53.128;8.182;2022-11-15T10:32:21;100598.44;;;12.28;100.00
12969;BME280;6549;53.128;8.182;2022-11-15T10:35:29;100592.94;;;12.28;100.00
12969;BME280;6549;53.128;8.182;2022-11-15T10:38:30;100586.63;;;12.31;100.00
12969;BME280;6549;53.128;8.182;2022-11-15T10:41:37;100587.81;;;12.34;100.00
12969;BME280;6549;53.128;8.182;2022-11-15T10:44:43;100584.25;;;12.37;100.00
12969;BME280;6549;53.128;8.182;2022-11-15T10:47:43;100577.13;;;12.39;100.00
12969;BME280;6549;53.128;8.182;2022-11-15T10:50:45;100564.13;;;12.40;100.00
12969;BME280;6549;53.128;8.182;2022-11-15T10:53:46;100560.97;;;12.45;100.00
12969;BME280;6549;53.128;8.182;2022-11-15T10:56:52;100550.34;;;12.47;100.00
12969;BME280;6549;53.128;8.182;2022-11-15T10:59:55;100551.13;;;12.47;100.00
12969;BME280;6549;53.128;8.182;2022-11-15T11:06:08;100546.28;;;12.62;100.00
12969;BME280;6549;53.128;8.182;2022-11-15T11:12:30;100539.47;;;12.81;100.00
12969;BME280;6549;53.128;8.182;2022-11-15T11:15:31;100536.63;;;12.88;100.00
12969;BME280;6549;53.128;8.182;2022-11-15T11:18:38;100529.47;;;12.97;100.00
12969;BME280;6549;53.128;8.182;2022-11-15T11:25:10;100526.22;;;13.10;100.00
12969;BME280;6549;53.128;8.182;2022-11-15T11:34:50;100531.34;;;13.11;100.00
12969;BME280;6549;53.128;8.182;2022-11-15T11:44:43;100518.81;;;13.44;100.00
12969;BME280;6549;53.128;8.182;2022-11-15T11:54:17;100526.75;;;13.76;100.00
12969;BME280;6549;53.128;8.182;2022-11-15T11:57:32;100523.22;;;13.75;100.00
12969;BME280;6549;53.128;8.182;2022-11-15T12:00:38;100519.28;;;13.73;100.00
12969;BME280;6549;53.128;8.182;2022-11-15T12:03:44;100516.16;;;13.71;100.00
12969;BME280;6549;53.128;8.182;2022-11-15T12:06:59;100507.94;;;13.67;100.00
12969;BME280;6549;53.128;8.182;2022-11-15T12:10:05;100496.88;;;13.67;100.00
12969;BME280;6549;53.128;8.182;2022-11-15T12:13:16;100492.28;;;13.87;100.00
12969;BME280;6549;53.128;8.182;2022-11-15T12:19:21;100489.91;;;13.89;100.00
12969;BME280;6549;53.128;8.182;2022-11-15T12:22:47;100481.22;;;13.87;100.00
12969;BME280;6549;53.128;8.182;2022-11-15T12:25:57;100480.41;;;13.90;100.00
12969;BME280;6549;53.128;8.182;2022-11-15T12:29:02;100485.63;;;14.12;100.00
12969;BME280;6549;53.128;8.182;2022-11-15T12:32:05;100478.41;;;14.21;100.00
12969;BME280;6549;53.128;8.182;2022-11-15T12:35:42;100475.84;;;14.37;100.00
12969;BME280;6549;53.128;8.182;2022-11-15T12:39:02;100473.06;;;14.64;100.00
12969;BME280;6549;53.128;8.182;2022-11-15T12:45:24;100468.75;;;14.83;100.00
12969;BME280;6549;53.128;8.182;2022-11-15T12:52:05;100455.06;;;14.76;100.00
12969;BME280;6549;53.128;8.182;2022-11-15T12:55:30;100448.97;;;14.61;100.00
12969;BME280;6549;53.128;8.182;2022-11-15T13:01:58;100454.88;;;14.63;100.00
12969;BME280;6549;53.128;8.182;2022-11-15T13:08:44;100458.59;;;14.53;100.00
12969;BME280;6549;53.128;8.182;2022-11-15T13:11:49;100456.13;;;14.35;100.00
12969;BME280;6549;53.128;8.182;2022-11-15T13:14:54;100465.69;;;14.27;100.00
12969;BME280;6549;53.128;8.182;2022-11-15T13:17:56;100467.13;;;14.09;100.00
12969;BME280;6549;53.128;8.182;2022-11-15T13:20:57;100470.81;;;13.99;100.00
12969;BME280;6549;53.128;8.182;2022-11-15T13:23:57;100470.59;;;13.86;100.00
12969;BME280;6549;53.128;8.182;2022-11-15T13:26:58;100470.28;;;13.80;100.00
12969;BME280;6549;53.128;8.182;2022-11-15T13:30:15;100470.91;;;13.91;100.00
12969;BME280;6549;53.128;8.182;2022-11-15T13:33:22;100460.75;;;14.15;100.00
12969;BME280;6549;53.128;8.182;2022-11-15T13:36:25;100463.59;;;14.35;100.00
12969;BME280;6549;53.128;8.182;2022-11-15T13:39:29;100459.19;;;14.41;100.00
12969;BME280;6549;53.128;8.182;2022-11-15T13:42:29;100455.13;;;14.49;100.00
12969;BME280;6549;53.128;8.182;2022-11-15T13:45:30;100454.38;;;14.45;100.00
12969;BME280;6549;53.128;8.182;2022-11-15T13:48:30;100450.59;;;14.35;100.00
12969;BME280;6549;53.128;8.182;2022-11-15T13:51:40;100447.47;;;14.30;100.00
12969;BME280;6549;53.128;8.182;2022-11-15T13:57:48;100443.09;;;14.06;100.00
12969;BME280;6549;53.128;8.182;2022-11-15T14:01:02;100435.00;;;13.91;100.00
12969;BME280;6549;53.128;8.182;2022-11-15T14:04:03;100439.59;;;13.75;100.00
12969;BME280;6549;53.128;8.182;2022-11-15T14:07:04;100429.09;;;13.63;100.00
12969;BME280;6549;53.128;8.182;2022-11-15T14:10:30;100420.09;;;13.55;100.00
12969;BME280;6549;53.128;8.182;2022-11-15T14:13:31;100413.84;;;13.51;100.00
12969;BME280;6549;53.128;8.182;2022-11-15T14:16:36;100407.69;;;13.40;100.00
12969;BME280;6549;53.128;8.182;2022-11-15T14:19:39;100425.88;;;13.34;100.00
12969;BME280;6549;53.128;8.182;2022-11-15T14:22:54;100426.78;;;13.24;100.00
12969;BME280;6549;53.128;8.182;2022-11-15T14:25:58;100433.56;;;13.16;100.00
12969;BME280;6549;53.128;8.182;2022-11-15T14:29:21;100425.38;;;13.05;100.00
12969;BME280;6549;53.128;8.182;2022-11-15T14:32:27;100426.28;;;12.95;100.00
12969;BME280;6549;53.128;8.182;2022-11-15T14:35:28;100421.63;;;12.85;100.00
12969;BME280;6549;53.128;8.182;2022-11-15T14:38:28;100419.34;;;12.76;100.00
12969;BME280;6549;53.128;8.182;2022-11-15T14:41:28;100419.09;;;12.64;100.00
12969;BME280;6549;53.128;8.182;2022-11-15T14:44:32;100409.34;;;12.52;100.00
12969;BME280;6549;53.128;8.182;2022-11-15T14:47:32;100409.44;;;12.41;100.00
12969;BME280;6549;53.128;8.182;2022-11-15T14:50:34;100396.13;;;12.33;100.00
12969;BME280;6549;53.128;8.182;2022-11-15T14:53:34;100388.28;;;12.28;100.00
12969;BME280;6549;53.128;8.182;2022-11-15T14:56:35;100387.94;;;12.19;100.00
12969;BME280;6549;53.128;8.182;2022-11-15T14:59:35;100381.34;;;12.05;100.00
12969;BME280;6549;53.128;8.182;2022-11-15T15:02:35;100376.72;;;11.92;100.00
12969;BME280;6549;53.128;8.182;2022-11-15T15:05:41;100374.44;;;11.83;100.00
12969;BME280;6549;53.128;8.182;2022-11-15T15:08:42;100377.66;;;11.64;100.00
12969;BME280;6549;53.128;8.182;2022-11-15T15:11:42;100366.31;;;11.55;100.00
12969;BME280;6549;53.128;8.182;2022-11-15T15:14:43;100376.53;;;11.51;100.00
12969;BME280;6549;53.128;8.182;2022-11-15T15:17:44;100358.91;;;11.45;100.00
12969;BME280;6549;53.128;8.182;2022-11-15T15:20:45;100358.50;;;11.43;100.00
12969;BME280;6549;53.128;8.182;2022-11-15T15:23:47;100351.09;;;11.33;100.00
12969;BME280;6549;53.128;8.182;2022-11-15T15:26:47;100351.91;;;11.22;100.00
12969;BME280;6549;53.128;8.182;2022-11-15T15:29:48;100349.56;;;11.17;100.00
12969;BME280;6549;53.128;8.182;2022-11-15T15:32:48;100348.81;;;11.13;100.00
12969;BME280;6549;53.128;8.182;2022-11-15T15:35:49;100351.59;;;11.06;100.00
12969;BME280;6549;53.128;8.182;2022-11-15T15:38:49;100344.94;;;10.93;100.00
12969;BME280;6549;53.128;8.182;2022-11-15T15:41:49;100337.13;;;10.81;100.00
12969;BME280;6549;53.128;8.182;2022-11-15T15:44:50;100332.06;;;10.65;100.00
12969;BME280;6549;53.128;8.182;2022-11-15T15:47:51;100334.44;;;10.60;100.00
12969;BME280;6549;53.128;8.182;2022-11-15T15:50:52;100336.44;;;10.49;100.00
12969;BME280;6549;53.128;8.182;2022-11-15T15:53:52;100336.41;;;10.42;100.00
12969;BME280;6549;53.128;8.182;2022-11-15T15:56:57;100329.78;;;10.35;100.00
12969;BME280;6549;53.128;8.182;2022-11-15T15:59:57;100333.31;;;10.25;100.00
12969;BME280;6549;53.128;8.182;2022-11-15T16:02:57;100332.09;;;10.12;100.00
12969;BME280;6549;53.128;8.182;2022-11-15T16:05:58;100329.34;;;9.98;100.00
12969;BME280;6549;53.128;8.182;2022-11-15T16:08:58;100335.97;;;9.83;100.00
12969;BME280;6549;53.128;8.182;2022-11-15T16:11:59;100324.59;;;9.70;100.00
12969;BME280;6549;53.128;8.182;2022-11-15T16:14:59;100317.53;;;9.59;100.00
12969;BME280;6549;53.128;8.182;2022-11-15T16:18:01;100308.91;;;9.50;100.00
12969;BME280;6549;53.128;8.182;2022-11-15T16:21:02;100309.66;;;9.39;100.00
12969;BME280;6549;53.128;8.182;2022-11-15T16:24:02;100307.66;;;9.29;100.00
12969;BME280;6549;53.128;8.182;2022-11-15T16:27:02;100310.38;;;9.22;100.00
12969;BME280;6549;53.128;8.182;2022-11-15T16:30:03;100310.00;;;9.24;100.00
12969;BME280;6549;53.128;8.182;2022-11-15T16:33:03;100304.53;;;9.27;100.00
12969;BME280;6549;53.128;8.182;2022-11-15T16:36:06;100296.69;;;9.29;100.00
12969;BME280;6549;53.128;8.182;2022-11-15T16:39:12;100298.69;;;9.36;100.00
12969;BME280;6549;53.128;8.182;2022-11-15T16:42:13;100297.88;;;9.32;100.00
12969;BME280;6549;53.128;8.182;2022-11-15T16:45:13;100295.91;;;9.25;100.00
12969;BME280;6549;53.128;8.182;2022-11-15T16:48:25;100292.03;;;9.33;100.00
12969;BME280;6549;53.128;8.182;2022-11-15T16:51:26;100287.72;;;9.39;100.00
12969;BME280;6549;53.128;8.182;2022-11-15T16:54:26;100285.38;;;9.41;100.00
12969;BME280;6549;53.128;8.182;2022-11-15T16:57:26;100280.69;;;9.45;100.00
12969;BME280;6549;53.128;8.182;2022-11-15T17:00:27;100277.16;;;9.41;100.00
12969;BME280;6549;53.128;8.182;2022-11-15T17:03:27;100282.22;;;9.43;100.00
12969;BME280;6549;53.128;8.182;2022-11-15T17:06:27;100272.03;;;9.47;100.00
12969;BME280;6549;53.128;8.182;2022-11-15T17:09:28;100271.28;;;9.50;100.00
12969;BME280;6549;53.128;8.182;2022-11-15T17:12:28;100267.34;;;9.47;100.00
12969;BME280;6549;53.128;8.182;2022-11-15T17:15:30;100267.38;;;9.62;100.00
12969;BME280;6549;53.128;8.182;2022-11-15T17:18:30;100265.81;;;9.61;100.00
12969;BME280;6549;53.128;8.182;2022-11-15T17:21:30;100256.41;;;9.62;100.00
12969;BME280;6549;53.128;8.182;2022-11-15T17:24:30;100250.13;;;9.58;100.00